createdAt,value
2022-08-03T00:00:03.397Z,100377.63
2022-08-03T00:00:56.468Z,100375.00
2022-08-03T00:01:36.385Z,100389.38
2022-08-03T00:02:24.417Z,100364.00
2022-08-03T00:03:18.407Z,100370.28
2022-08-03T00:04:12.401Z,100389.81
2022-08-03T00:05:07.397Z,100378.38
2022-08-03T00:06:04.808Z,100372.66
2022-08-03T00:06:59.391Z,100390.53
2022-08-03T00:07:48.616Z,100393.09
2022-08-03T00:08:23.650Z,100389.66
2022-08-03T00:09:12.408Z,100393.09
2022-08-03T00:09:46.550Z,100379.09
2022-08-03T00:10:33.372Z,100378.25
2022-08-03T00:11:07.444Z,100393.94
2022-08-03T00:11:54.370Z,100375.41
2022-08-03T00:12:28.438Z,100373.00
2022-08-03T00:13:08.385Z,100390.38
2022-08-03T00:13:48.429Z,100391.09
2022-08-03T00:14:28.412Z,100386.66
2022-08-03T00:15:15.005Z,100371.50
2022-08-03T00:15:56.385Z,100381.22
2022-08-03T00:16:36.483Z,100373.72
2022-08-03T00:17:17.386Z,100388.69
2022-08-03T00:17:57.434Z,100370.66
2022-08-03T00:18:38.409Z,100372.50
2022-08-03T00:19:18.416Z,100386.66
2022-08-03T00:19:58.361Z,100375.75
2022-08-03T00:20:38.453Z,100375.44
2022-08-03T00:21:19.374Z,100389.09
2022-08-03T00:21:59.464Z,100391.50
2022-08-03T00:22:42.384Z,100381.75
2022-08-03T00:23:22.432Z,100382.00
2022-08-03T00:24:03.383Z,100390.13
2022-08-03T00:24:43.435Z,100380.97
2022-08-03T00:25:24.365Z,100385.91
2022-08-03T00:26:04.417Z,100388.56
2022-08-03T00:26:45.366Z,100381.59
2022-08-03T00:27:25.456Z,100378.53
2022-08-03T00:28:05.370Z,100366.91
2022-08-03T00:28:45.425Z,100386.38
2022-08-03T00:29:25.381Z,100384.91
2022-08-03T00:30:05.444Z,100351.19
2022-08-03T00:30:46.368Z,100371.63
2022-08-03T00:31:39.724Z,100371.81
2022-08-03T00:32:26.340Z,100374.69
2022-08-03T00:33:08.361Z,100389.41
2022-08-03T00:33:59.388Z,100386.91
2022-08-03T00:34:57.893Z,100384.31
2022-08-03T00:35:50.447Z,100385.16
2022-08-03T00:36:38.356Z,100385.16
2022-08-03T00:37:12.481Z,100378.66
2022-08-03T00:37:59.351Z,100372.03
2022-08-03T00:38:33.410Z,100390.38
2022-08-03T00:39:20.361Z,100387.00
2022-08-03T00:40:01.357Z,100385.28
2022-08-03T00:40:57.361Z,100393.19
2022-08-03T00:41:51.367Z,100383.28
2022-08-03T00:42:45.406Z,100388.06
2022-08-03T00:43:40.361Z,100369.03
2022-08-03T00:44:34.359Z,100400.72
2022-08-03T00:45:21.390Z,100395.97
2022-08-03T00:45:55.425Z,100396.47
2022-08-03T00:46:42.352Z,100397.19
2022-08-03T00:47:16.425Z,100373.16
2022-08-03T00:48:04.366Z,100399.38
2022-08-03T00:48:38.420Z,100371.41
2022-08-03T00:49:25.506Z,100392.22
2022-08-03T00:49:59.402Z,100385.38
2022-08-03T00:50:48.365Z,100382.47
2022-08-03T00:51:27.409Z,100391.84
2022-08-03T00:52:18.389Z,100388.63
2022-08-03T00:52:53.409Z,100379.72
2022-08-03T00:53:42.349Z,100388.78
2022-08-03T00:54:17.433Z,100391.00
2022-08-03T00:55:04.351Z,100379.91
2022-08-03T00:55:38.412Z,100387.41
2022-08-03T00:56:23.468Z,100394.38
2022-08-03T00:57:04.461Z,100372.13
2022-08-03T00:57:45.340Z,100379.91
2022-08-03T00:58:25.452Z,100392.22
2022-08-03T00:59:06.312Z,100365.09
2022-08-03T00:59:46.424Z,100374.63
2022-08-03T01:00:30.337Z,100387.59
2022-08-03T01:01:10.495Z,100376.75
2022-08-03T01:01:50.439Z,100390.84
2022-08-03T01:02:31.415Z,100382.59
2022-08-03T01:03:17.344Z,100386.78
2022-08-03T01:03:57.408Z,100386.75
2022-08-03T01:04:37.351Z,100374.09
2022-08-03T01:05:11.363Z,100383.81
2022-08-03T01:06:26.340Z,100387.41
2022-08-03T01:07:13.364Z,100371.22
2022-08-03T01:08:29.470Z,100383.28
2022-08-03T01:09:41.342Z,100379.09
2022-08-03T01:10:53.392Z,100363.75
2022-08-03T01:11:59.769Z,100378.25
2022-08-03T01:14:01.243Z,100377.09
2022-08-03T01:14:43.414Z,100371.09
2022-08-03T01:15:44.524Z,100379.19
2022-08-03T01:16:39.324Z,100377.44
2022-08-03T01:17:27.382Z,100380.22
2022-08-03T01:18:31.002Z,100373.09
2022-08-03T01:19:41.361Z,100386.56
2022-08-03T01:20:18.495Z,100369.31
2022-08-03T01:20:56.852Z,100380.75
2022-08-03T01:22:17.604Z,100379.41
2022-08-03T01:23:30.405Z,100385.09
2022-08-03T01:24:51.353Z,100381.28
2022-08-03T01:25:54.346Z,100383.81
2022-08-03T01:27:07.322Z,100378.22
2022-08-03T01:28:22.409Z,100348.75
2022-08-03T01:29:44.324Z,100385.03
2022-08-03T01:30:24.326Z,100382.97
2022-08-03T01:31:08.242Z,100369.88
2022-08-03T01:32:54.499Z,100378.94
2022-08-03T01:33:12.315Z,100349.47
2022-08-03T01:33:49.413Z,100375.88
2022-08-03T01:34:23.505Z,100381.38
2022-08-03T01:35:13.325Z,100387.53
2022-08-03T01:36:04.345Z,100382.41
2022-08-03T01:36:43.709Z,100388.88
2022-08-03T01:37:35.322Z,100381.75
2022-08-03T01:38:27.672Z,100378.03
2022-08-03T01:39:18.317Z,100362.81
2022-08-03T01:39:54.004Z,100383.44
2022-08-03T01:40:44.304Z,100382.94
2022-08-03T01:41:29.360Z,100378.66
2022-08-03T01:42:13.597Z,100379.66
2022-08-03T01:42:54.298Z,100380.84
2022-08-03T01:44:26.407Z,100376.59
2022-08-03T01:44:38.299Z,100384.94
2022-08-03T01:45:21.385Z,100378.31
2022-08-03T01:46:04.331Z,100379.03
2022-08-03T01:46:55.347Z,100368.78
2022-08-03T01:47:30.012Z,100384.28
2022-08-03T01:48:18.335Z,100367.41
2022-08-03T01:48:52.652Z,100376.78
2022-08-03T01:49:41.335Z,100376.47
2022-08-03T01:50:15.814Z,100374.25
2022-08-03T01:51:08.289Z,100374.06
2022-08-03T01:52:02.793Z,100376.22
2022-08-03T01:52:48.342Z,100376.53
2022-08-03T01:53:25.368Z,100373.94
2022-08-03T01:53:59.681Z,100380.75
2022-08-03T01:54:43.297Z,100379.19
2022-08-03T01:55:18.373Z,100373.72
2022-08-03T01:55:55.650Z,100364.66
2022-08-03T01:56:37.307Z,100362.78
2022-08-03T01:57:11.493Z,100357.31
2022-08-03T01:58:05.315Z,100363.81
2022-08-03T01:58:47.397Z,100368.03
2022-08-03T01:59:23.428Z,100347.03
2022-08-03T01:59:59.427Z,100361.53
2022-08-03T02:00:42.327Z,100368.91
2022-08-03T02:01:17.526Z,100368.97
2022-08-03T02:02:29.185Z,100341.72
2022-08-03T02:02:54.281Z,100375.69
2022-08-03T02:03:29.362Z,100362.47
2022-08-03T02:04:11.307Z,100372.75
2022-08-03T02:04:52.352Z,100366.59
2022-08-03T02:05:34.283Z,100356.69
2022-08-03T02:07:02.787Z,100377.00
2022-08-03T02:07:17.491Z,100371.38
2022-08-03T02:07:58.336Z,100376.53
2022-08-03T02:08:39.288Z,100365.41
2022-08-03T02:09:28.303Z,100362.28
2022-08-03T02:10:05.357Z,100375.06
2022-08-03T02:10:55.266Z,100368.97
2022-08-03T02:11:31.581Z,100368.63
2022-08-03T02:12:22.312Z,100365.22
2022-08-03T02:12:56.084Z,100358.09
2022-08-03T02:13:44.276Z,100368.00
2022-08-03T02:14:19.444Z,100368.84
2022-08-03T02:15:01.299Z,100361.00
2022-08-03T02:15:35.422Z,100379.28
2022-08-03T02:16:09.745Z,100356.44
2022-08-03T02:16:51.294Z,100359.81
2022-08-03T02:17:38.454Z,100361.00
2022-08-03T02:18:14.988Z,100349.94
2022-08-03T02:18:56.273Z,100361.19
2022-08-03T02:19:35.653Z,100354.41
2022-08-03T02:20:18.296Z,100360.72
2022-08-03T02:20:59.347Z,100353.94
2022-08-03T02:21:56.964Z,100366.41
2022-08-03T02:22:42.398Z,100354.78
2022-08-03T02:23:23.253Z,100363.81
2022-08-03T02:24:04.466Z,100348.13
2022-08-03T02:24:45.273Z,100366.38
2022-08-03T02:25:39.314Z,100351.19
2022-08-03T02:26:16.241Z,100368.78
2022-08-03T02:27:06.270Z,100362.84
2022-08-03T02:27:46.466Z,100366.59
2022-08-03T02:28:35.265Z,100367.09
2022-08-03T02:29:18.969Z,100362.50
2022-08-03T02:30:21.258Z,100357.22
2022-08-03T02:31:03.283Z,100359.63
2022-08-03T02:31:44.337Z,100326.19
2022-08-03T02:32:30.275Z,100348.53
2022-08-03T02:33:12.318Z,100350.59
2022-08-03T02:34:03.268Z,100356.91
2022-08-03T02:34:44.316Z,100356.06
2022-08-03T02:35:26.260Z,100352.63
2022-08-03T02:36:15.291Z,100347.41
2022-08-03T02:36:50.705Z,100358.09
2022-08-03T02:37:42.920Z,100346.38
2022-08-03T02:38:21.619Z,100350.28
2022-08-03T02:39:14.282Z,100360.34
2022-08-03T02:39:49.146Z,100359.59
2022-08-03T02:40:38.273Z,100344.56
2022-08-03T02:41:25.272Z,100360.81
2022-08-03T02:42:07.317Z,100353.28
2022-08-03T02:42:48.243Z,100358.69
2022-08-03T02:43:30.325Z,100353.94
2022-08-03T02:44:32.265Z,100348.97
2022-08-03T02:45:16.326Z,100355.66
2022-08-03T02:45:58.241Z,100358.75
2022-08-03T02:46:51.279Z,100363.66
2022-08-03T02:47:27.994Z,100358.19
2022-08-03T02:48:18.266Z,100357.16
2022-08-03T02:49:41.420Z,100355.06
2022-08-03T02:50:30.499Z,100363.34
2022-08-03T02:51:25.275Z,100366.00
2022-08-03T02:52:17.458Z,100364.72
2022-08-03T02:52:53.367Z,100359.56
2022-08-03T02:53:41.236Z,100342.81
2022-08-03T02:54:16.305Z,100352.03
2022-08-03T02:55:07.234Z,100362.63
2022-08-03T02:55:42.943Z,100347.56
2022-08-03T02:56:35.224Z,100354.44
2022-08-03T02:57:09.340Z,100363.34
2022-08-03T02:57:51.264Z,100351.72
2022-08-03T02:58:31.474Z,100343.53
2022-08-03T02:59:13.261Z,100363.13
2022-08-03T02:59:54.374Z,100354.22
2022-08-03T03:00:36.320Z,100372.47
2022-08-03T03:01:18.330Z,100352.53
2022-08-03T03:02:00.246Z,100354.72
2022-08-03T03:02:44.437Z,100351.88
2022-08-03T03:03:26.413Z,100355.06
2022-08-03T03:04:09.321Z,100353.59
2022-08-03T03:05:51.102Z,100359.56
2022-08-03T03:05:57.519Z,100344.03
2022-08-03T03:06:39.226Z,100354.66
2022-08-03T03:07:21.541Z,100363.19
2022-08-03T03:08:02.211Z,100362.13
2022-08-03T03:08:42.250Z,100356.34
2022-08-03T03:09:16.305Z,100351.72
2022-08-03T03:10:04.262Z,100348.84
2022-08-03T03:10:38.318Z,100363.66
2022-08-03T03:11:28.225Z,100356.31
2022-08-03T03:12:03.310Z,100364.13
2022-08-03T03:12:52.262Z,100365.03
2022-08-03T03:13:26.370Z,100365.03
2022-08-03T03:14:07.264Z,100362.31
2022-08-03T03:14:49.304Z,100361.28
2022-08-03T03:15:32.218Z,100371.19
2022-08-03T03:16:13.525Z,100360.09
2022-08-03T03:16:57.639Z,100352.59
2022-08-03T03:17:39.301Z,100363.16
2022-08-03T03:18:22.590Z,100363.16
2022-08-03T03:19:04.311Z,100361.63
2022-08-03T03:19:46.246Z,100347.63
2022-08-03T03:20:30.140Z,100355.66
2022-08-03T03:21:12.201Z,100359.03
2022-08-03T03:21:52.326Z,100347.13
2022-08-03T03:22:33.206Z,100358.53
2022-08-03T03:23:15.304Z,100371.50
2022-08-03T03:23:56.211Z,100351.22
2022-08-03T03:24:37.316Z,100370.38
2022-08-03T03:25:18.265Z,100358.75
2022-08-03T03:25:59.368Z,100362.34
2022-08-03T03:26:42.489Z,100356.53
2022-08-03T03:27:23.270Z,100354.81
2022-08-03T03:28:04.237Z,100349.03
2022-08-03T03:28:47.346Z,100351.78
2022-08-03T03:29:28.238Z,100360.69
2022-08-03T03:30:10.284Z,100364.06
2022-08-03T03:30:52.800Z,100341.94
2022-08-03T03:31:33.277Z,100360.31
2022-08-03T03:32:14.390Z,100363.69
2022-08-03T03:32:55.283Z,100350.41
2022-08-03T03:33:35.259Z,100358.25
2022-08-03T03:34:15.263Z,100346.31
2022-08-03T03:34:57.197Z,100362.50
2022-08-03T03:35:38.999Z,100356.53
2022-08-03T03:36:19.250Z,100364.03
2022-08-03T03:36:59.311Z,100338.81
2022-08-03T03:37:39.229Z,100365.75
2022-08-03T03:38:19.346Z,100349.50
2022-08-03T03:38:59.221Z,100343.91
2022-08-03T03:39:56.279Z,100337.25
2022-08-03T03:40:37.195Z,100345.97
2022-08-03T03:41:17.265Z,100359.63
2022-08-03T03:41:58.213Z,100364.91
2022-08-03T03:42:39.359Z,100341.22
2022-08-03T03:43:20.209Z,100355.22
2022-08-03T03:44:00.320Z,100362.72
2022-08-03T03:44:41.200Z,100361.34
2022-08-03T03:45:22.390Z,100350.59
2022-08-03T03:46:05.196Z,100339.50
2022-08-03T03:46:46.320Z,100356.00
2022-08-03T03:47:32.703Z,100346.69
2022-08-03T03:48:14.265Z,100355.88
2022-08-03T03:48:55.231Z,100360.34
2022-08-03T03:49:35.327Z,100348.59
2022-08-03T03:50:17.212Z,100348.09
2022-08-03T03:50:59.561Z,100355.41
2022-08-03T03:51:40.201Z,100355.59
2022-08-03T03:52:20.266Z,100365.44
2022-08-03T03:53:01.229Z,100349.44
2022-08-03T03:53:42.301Z,100362.56
2022-08-03T03:54:25.519Z,100355.88
2022-08-03T03:55:09.277Z,100372.28
2022-08-03T03:55:59.807Z,100370.72
2022-08-03T03:56:43.283Z,100355.59
2022-08-03T03:57:24.199Z,100359.19
2022-08-03T03:58:14.064Z,100365.13
2022-08-03T03:59:02.249Z,100373.50
2022-08-03T03:59:47.205Z,100372.66
2022-08-03T04:00:27.345Z,100376.41
2022-08-03T04:01:08.309Z,100368.03
2022-08-03T04:01:48.316Z,100376.22
2022-08-03T04:02:40.202Z,100372.97
2022-08-03T04:03:27.310Z,100374.88
2022-08-03T04:04:40.257Z,100380.47
2022-08-03T04:05:52.181Z,100374.63
2022-08-03T04:07:04.205Z,100365.63
2022-08-03T04:08:31.242Z,100384.00
2022-08-03T04:09:43.197Z,100377.69
2022-08-03T04:10:59.169Z,100383.16
2022-08-03T04:12:07.186Z,100378.91
2022-08-03T04:13:02.168Z,100390.50
2022-08-03T04:14:16.186Z,100382.63
2022-08-03T04:14:50.225Z,100376.69
2022-08-03T04:15:38.202Z,100390.00
2022-08-03T04:16:14.277Z,100382.50
2022-08-03T04:17:09.183Z,100372.94
2022-08-03T04:17:43.249Z,100380.09
2022-08-03T04:18:31.194Z,100387.91
2022-08-03T04:19:24.205Z,100379.44
2022-08-03T04:20:19.152Z,100382.47
2022-08-03T04:21:17.164Z,100362.66
2022-08-03T04:22:15.385Z,100381.97
2022-08-03T04:23:13.726Z,100391.84
2022-08-03T04:24:15.191Z,100389.75
2022-08-03T04:25:03.211Z,100388.47
2022-08-03T04:25:44.253Z,100367.56
2022-08-03T04:26:28.159Z,100361.91
2022-08-03T04:27:11.360Z,100385.91
2022-08-03T04:28:28.279Z,100369.91
2022-08-03T04:28:56.308Z,100391.19
2022-08-03T04:29:48.380Z,100376.34
2022-08-03T04:30:30.192Z,100378.56
2022-08-03T04:31:06.244Z,100391.84
2022-08-03T04:31:54.161Z,100391.38
2022-08-03T04:32:29.337Z,100389.47
2022-08-03T04:33:17.179Z,100382.25
2022-08-03T04:33:54.628Z,100390.97
2022-08-03T04:34:42.178Z,100390.06
2022-08-03T04:35:16.236Z,100388.06
2022-08-03T04:36:02.653Z,100396.97
2022-08-03T04:36:50.324Z,100379.50
2022-08-03T04:37:52.171Z,100401.00
2022-08-03T04:38:32.233Z,100406.09
2022-08-03T04:39:27.161Z,100376.25
2022-08-03T04:40:10.256Z,100396.88
2022-08-03T04:40:51.120Z,100398.88
2022-08-03T04:41:33.195Z,100397.47
2022-08-03T04:42:28.221Z,100393.13
2022-08-03T04:43:17.168Z,100392.25
2022-08-03T04:43:51.238Z,100385.09
2022-08-03T04:44:47.177Z,100398.72
2022-08-03T04:45:23.243Z,100404.13
2022-08-03T04:46:11.136Z,100399.78
2022-08-03T04:46:53.164Z,100403.03
2022-08-03T04:47:48.162Z,100381.66
2022-08-03T04:48:44.681Z,100401.25
2022-08-03T04:49:40.221Z,100405.63
2022-08-03T04:50:35.173Z,100395.31
2022-08-03T04:51:29.165Z,100403.19
2022-08-03T04:52:16.391Z,100399.88
2022-08-03T04:52:51.205Z,100388.06
2022-08-03T04:53:38.125Z,100395.47
2022-08-03T04:54:12.210Z,100392.06
2022-08-03T04:54:59.149Z,100396.13
2022-08-03T04:55:38.244Z,100393.03
2022-08-03T04:56:25.156Z,100395.84
2022-08-03T04:56:59.429Z,100397.00
2022-08-03T04:57:39.169Z,100385.84
2022-08-03T04:58:19.210Z,100394.19
2022-08-03T04:59:00.133Z,100391.09
2022-08-03T04:59:40.854Z,100382.38
2022-08-03T05:00:22.146Z,100392.03
2022-08-03T05:01:02.209Z,100376.97
2022-08-03T05:01:43.233Z,100389.94
2022-08-03T05:02:23.245Z,100392.59
2022-08-03T05:03:04.176Z,100392.88
2022-08-03T05:04:00.410Z,100380.38
2022-08-03T05:04:40.128Z,100392.13
2022-08-03T05:05:20.214Z,100393.63
2022-08-03T05:06:11.473Z,100377.72
2022-08-03T05:06:55.032Z,100376.03
2022-08-03T05:07:36.773Z,100392.47
2022-08-03T05:08:27.817Z,100387.56
2022-08-03T05:09:49.975Z,100383.41
2022-08-03T05:10:36.133Z,100381.59
2022-08-03T05:11:31.121Z,100377.16
2022-08-03T05:12:28.310Z,100397.19
2022-08-03T05:13:25.159Z,100384.19
2022-08-03T05:14:19.330Z,100371.94
2022-08-03T05:15:23.146Z,100383.91
2022-08-03T05:16:17.124Z,100391.00
2022-08-03T05:17:11.132Z,100391.94
2022-08-03T05:18:05.122Z,100389.19
2022-08-03T05:18:46.139Z,100368.09
2022-08-03T05:19:26.184Z,100390.69
2022-08-03T05:20:07.137Z,100383.91
2022-08-03T05:20:47.220Z,100383.13
2022-08-03T05:21:27.183Z,100390.56
2022-08-03T05:22:28.197Z,100379.34
2022-08-03T05:23:10.112Z,100394.25
2022-08-03T05:23:58.141Z,100385.78
2022-08-03T05:24:52.108Z,100397.25
2022-08-03T05:25:49.739Z,100392.59
2022-08-03T05:26:44.171Z,100390.50
2022-08-03T05:27:38.137Z,100387.19
2022-08-03T05:28:32.137Z,100379.34
2022-08-03T05:29:19.138Z,100383.38
2022-08-03T05:29:54.185Z,100383.84
2022-08-03T05:30:41.116Z,100358.44
2022-08-03T05:31:15.186Z,100377.34
2022-08-03T05:32:08.050Z,100377.19
2022-08-03T05:32:42.175Z,100374.81
2022-08-03T05:33:29.130Z,100375.28
2022-08-03T05:34:04.216Z,100381.22
2022-08-03T05:34:45.136Z,100372.13
2022-08-03T05:35:57.322Z,100387.03
2022-08-03T05:36:26.123Z,100383.88
2022-08-03T05:37:07.292Z,100394.09
2022-08-03T05:37:54.706Z,100375.84
2022-08-03T05:38:36.268Z,100391.34
2022-08-03T05:39:16.138Z,100380.28
2022-08-03T05:40:03.140Z,100391.72
2022-08-03T05:41:22.907Z,100373.94
2022-08-03T05:42:11.106Z,100387.19
2022-08-03T05:43:05.104Z,100391.00
2022-08-03T05:43:59.097Z,100388.47
2022-08-03T05:44:53.097Z,100380.03
2022-08-03T05:45:33.120Z,100374.97
2022-08-03T05:46:13.382Z,100378.38
2022-08-03T05:46:53.134Z,100384.78
2022-08-03T05:47:33.305Z,100380.34
2022-08-03T05:48:13.117Z,100382.88
2022-08-03T05:48:53.223Z,100394.56
2022-08-03T05:49:33.153Z,100389.47
2022-08-03T05:50:14.201Z,100390.75
2022-08-03T05:50:54.116Z,100392.47
2022-08-03T05:51:34.201Z,100399.28
2022-08-03T05:52:15.090Z,100391.03
2022-08-03T05:52:57.790Z,100387.38
2022-08-03T05:53:41.117Z,100393.31
2022-08-03T05:54:21.230Z,100393.38
2022-08-03T05:55:01.109Z,100390.38
2022-08-03T05:55:41.167Z,100381.72
2022-08-03T05:56:22.109Z,100393.00
2022-08-03T05:57:02.186Z,100387.91
2022-08-03T05:57:43.084Z,100392.56
2022-08-03T05:58:25.169Z,100402.34
2022-08-03T05:59:35.713Z,100393.03
2022-08-03T06:00:14.394Z,100404.03
2022-08-03T06:00:56.112Z,100406.63
2022-08-03T06:01:43.171Z,100410.88
2022-08-03T06:02:37.099Z,100391.16
2022-08-03T06:03:31.076Z,100398.56
2022-08-03T06:04:25.084Z,100405.41
2022-08-03T06:05:21.071Z,100404.31
2022-08-03T06:06:15.120Z,100399.28
2022-08-03T06:07:02.119Z,100413.03
2022-08-03T06:07:36.144Z,100409.50
2022-08-03T06:08:23.088Z,100405.19
2022-08-03T06:08:57.143Z,100415.63
2022-08-03T06:10:34.126Z,100407.19
2022-08-03T06:10:38.520Z,100403.81
2022-08-03T06:11:25.071Z,100416.13
2022-08-03T06:11:59.128Z,100411.25
2022-08-03T06:12:42.175Z,100402.75
2022-08-03T06:13:22.199Z,100401.06
2022-08-03T06:14:02.094Z,100420.94
2022-08-03T06:14:42.169Z,100404.06
2022-08-03T06:15:23.112Z,100407.28
2022-08-03T06:16:03.218Z,100413.41
2022-08-03T06:16:43.086Z,100410.22
2022-08-03T06:17:23.162Z,100418.91
2022-08-03T06:18:04.100Z,100411.09
2022-08-03T06:18:46.002Z,100422.31
2022-08-03T06:19:26.115Z,100388.59
2022-08-03T06:20:06.199Z,100412.81
2022-08-03T06:20:49.245Z,100409.38
2022-08-03T06:21:31.175Z,100410.50
2022-08-03T06:22:12.109Z,100415.78
2022-08-03T06:23:00.132Z,100422.53
2022-08-03T06:23:52.933Z,100409.84
2022-08-03T06:24:34.163Z,100404.75
2022-08-03T06:25:15.091Z,100402.88
2022-08-03T06:25:55.209Z,100411.38
2022-08-03T06:26:36.112Z,100405.63
2022-08-03T06:27:16.498Z,100396.94
2022-08-03T06:27:59.061Z,100417.94
2022-08-03T06:28:52.583Z,100417.94
2022-08-03T06:29:34.117Z,100411.59
2022-08-03T06:30:20.988Z,100412.81
2022-08-03T06:31:01.178Z,100412.19
2022-08-03T06:31:41.197Z,100409.00
2022-08-03T06:32:22.104Z,100419.59
2022-08-03T06:33:02.188Z,100414.94
2022-08-03T06:34:22.858Z,100407.75
2022-08-03T06:34:49.097Z,100401.78
2022-08-03T06:35:43.077Z,100419.63
2022-08-03T06:36:39.083Z,100411.59
2022-08-03T06:37:34.115Z,100416.66
2022-08-03T06:38:28.238Z,100409.88
2022-08-03T06:39:23.350Z,100407.31
2022-08-03T06:40:13.995Z,100413.69
2022-08-03T06:40:48.134Z,100420.72
2022-08-03T06:41:44.850Z,100416.91
2022-08-03T06:42:19.253Z,100402.91
2022-08-03T06:43:12.739Z,100415.19
2022-08-03T06:44:03.444Z,100409.47
2022-08-03T06:44:51.085Z,100401.00
2022-08-03T06:45:32.299Z,100410.34
2022-08-03T06:46:26.077Z,100415.22
2022-08-03T06:47:20.065Z,100417.53
2022-08-03T06:48:22.081Z,100404.81
2022-08-03T06:49:16.122Z,100409.09
2022-08-03T06:50:16.277Z,100422.03
2022-08-03T06:50:57.067Z,100423.50
2022-08-03T06:52:03.555Z,100402.06
2022-08-03T06:52:38.699Z,100394.88
2022-08-03T06:53:21.230Z,100408.66
2022-08-03T06:54:01.076Z,100403.16
2022-08-03T06:54:42.185Z,100421.19
2022-08-03T06:55:23.044Z,100427.38
2022-08-03T06:56:10.075Z,100413.56
2022-08-03T06:57:04.057Z,100415.69
2022-08-03T06:58:00.139Z,100418.50
2022-08-03T06:58:57.081Z,100428.03
2022-08-03T07:00:11.051Z,100418.50
2022-08-03T07:01:05.118Z,100419.78
2022-08-03T07:01:45.129Z,100427.00
2022-08-03T07:02:25.199Z,100419.34
2022-08-03T07:03:08.046Z,100422.31
2022-08-03T07:03:52.495Z,100418.94
2022-08-03T07:04:33.046Z,100418.09
2022-08-03T07:05:15.171Z,100420.63
2022-08-03T07:05:56.062Z,100418.28
2022-08-03T07:06:36.204Z,100400.91
2022-08-03T07:07:17.102Z,100414.06
2022-08-03T07:07:57.672Z,100421.94
2022-08-03T07:08:38.029Z,100411.75
2022-08-03T07:09:18.132Z,100414.69
2022-08-03T07:09:58.398Z,100418.94
2022-08-03T07:10:39.084Z,100409.63
2022-08-03T07:11:19.057Z,100413.44
2022-08-03T07:12:01.314Z,100409.00
2022-08-03T07:12:55.801Z,100416.41
2022-08-03T07:13:37.161Z,100408.38
2022-08-03T07:14:17.039Z,100414.28
2022-08-03T07:15:00.921Z,100402.41
2022-08-03T07:15:55.222Z,100397.75
2022-08-03T07:16:36.118Z,100407.53
2022-08-03T07:17:16.062Z,100413.44
2022-08-03T07:17:56.158Z,100407.97
2022-08-03T07:18:30.243Z,100418.34
2022-08-03T07:19:18.056Z,100403.25
2022-08-03T07:19:52.131Z,100398.19
2022-08-03T07:20:40.046Z,100407.13
2022-08-03T07:21:14.165Z,100408.38
2022-08-03T07:22:02.329Z,100409.44
2022-08-03T07:22:38.915Z,100407.75
2022-08-03T07:23:20.041Z,100416.41
2022-08-03T07:24:00.095Z,100416.44
2022-08-03T07:24:40.033Z,100405.84
2022-08-03T07:25:20.237Z,100416.44
2022-08-03T07:26:00.036Z,100403.28
2022-08-03T07:26:40.143Z,100412.03
2022-08-03T07:27:20.034Z,100416.69
2022-08-03T07:28:00.095Z,100415.19
2022-08-03T07:28:41.052Z,100427.25
2022-08-03T07:29:21.267Z,100412.84
2022-08-03T07:30:02.018Z,100419.22
2022-08-03T07:30:42.111Z,100421.97
2022-08-03T07:31:22.039Z,100423.03
2022-08-03T07:32:02.172Z,100413.28
2022-08-03T07:32:49.849Z,100408.16
2022-08-03T07:33:31.086Z,100411.75
2022-08-03T07:34:12.035Z,100415.59
2022-08-03T07:34:53.806Z,100423.84
2022-08-03T07:35:36.026Z,100406.25
2022-08-03T07:36:31.031Z,100415.78
2022-08-03T07:37:28.047Z,100416.00
2022-08-03T07:38:23.043Z,100417.66
2022-08-03T07:39:18.277Z,100418.09
2022-08-03T07:40:16.052Z,100415.97
2022-08-03T07:41:10.040Z,100415.75
2022-08-03T07:42:04.005Z,100416.41
2022-08-03T07:42:58.007Z,100409.81
2022-08-03T07:43:52.025Z,100418.09
2022-08-03T07:44:39.057Z,100414.28
2022-08-03T07:45:16.738Z,100410.03
2022-08-03T07:46:04.024Z,100415.97
2022-08-03T07:46:38.089Z,100404.31
2022-08-03T07:47:35.517Z,100393.91
2022-08-03T07:48:12.389Z,100416.59
2022-08-03T07:49:00.091Z,100395.16
2022-08-03T07:49:34.235Z,100412.13
2022-08-03T07:50:15.042Z,100401.50
2022-08-03T07:50:55.153Z,100405.31
2022-08-03T07:51:35.009Z,100388.34
2022-08-03T07:52:33.779Z,100403.63
2022-08-03T07:53:15.028Z,100404.03
2022-08-03T07:53:57.593Z,100416.75
2022-08-03T07:54:38.993Z,100400.44
2022-08-03T07:55:26.034Z,100402.75
2022-08-03T07:56:20.032Z,100411.88
2022-08-03T07:57:14.026Z,100410.16
2022-08-03T07:58:24.173Z,100411.41
2022-08-03T07:59:18.001Z,100398.09
2022-08-03T08:00:12.011Z,100421.00
2022-08-03T08:00:52.066Z,100398.09
2022-08-03T08:01:34.116Z,100414.81
2022-08-03T08:02:15.138Z,100406.34
2022-08-03T08:02:56.074Z,100411.22
2022-08-03T08:03:52.460Z,100411.19
2022-08-03T08:04:34.070Z,100409.13
2022-08-03T08:05:16.982Z,100410.34
2022-08-03T08:06:04.021Z,100402.72
2022-08-03T08:07:00.007Z,100406.50
2022-08-03T08:07:54.008Z,100401.00
2022-08-03T08:08:47.977Z,100413.31
2022-08-03T08:09:42.000Z,100417.13
2022-08-03T08:10:36.994Z,100413.31
2022-08-03T08:11:24.019Z,100413.06
2022-08-03T08:11:58.058Z,100411.34
2022-08-03T08:12:46.986Z,100420.47
2022-08-03T08:13:21.043Z,100424.31
2022-08-03T08:14:08.980Z,100407.09
2022-08-03T08:14:45.734Z,100424.47
2022-08-03T08:15:33.034Z,100408.59
2022-08-03T08:16:07.101Z,100405.19
2022-08-03T08:16:47.021Z,100413.66
2022-08-03T08:17:27.079Z,100414.94
2022-08-03T08:18:08.989Z,100414.06
2022-08-03T08:18:49.064Z,100408.09
2022-08-03T08:19:29.195Z,100418.47
2022-08-03T08:20:14.051Z,100399.63
2022-08-03T08:20:57.973Z,100425.03
2022-08-03T08:21:53.422Z,100407.66
2022-08-03T08:22:38.086Z,100402.53
2022-08-03T08:23:43.694Z,100404.66
2022-08-03T08:24:23.980Z,100423.97
2022-08-03T08:25:06.066Z,100411.66
2022-08-03T08:25:46.976Z,100422.00
2022-08-03T08:26:27.076Z,100402.97
2022-08-03T08:27:09.981Z,100407.56
2022-08-03T08:28:31.451Z,100404.59
2022-08-03T08:29:18.056Z,100414.34
2022-08-03T08:30:15.962Z,100416.50
2022-08-03T08:31:15.004Z,100415.19
2022-08-03T08:32:08.980Z,100418.56
2022-08-03T08:33:03.002Z,100406.25
2022-08-03T08:34:04.814Z,100408.34
2022-08-03T08:34:58.994Z,100412.78
2022-08-03T08:35:53.039Z,100402.34
2022-08-03T08:36:47.987Z,100406.63
2022-08-03T08:37:42.034Z,100398.97
2022-08-03T08:38:21.993Z,100403.00
2022-08-03T08:39:02.087Z,100406.38
2022-08-03T08:39:41.979Z,100412.06
2022-08-03T08:40:23.068Z,100402.47
2022-08-03T08:41:03.995Z,100406.03
2022-08-03T08:41:46.152Z,100407.34
2022-08-03T08:42:27.026Z,100384.44
2022-08-03T08:43:07.713Z,100400.56
2022-08-03T08:43:48.993Z,100404.13